createdAt,value
2022-10-13T00:00:56.933Z,6.57
2022-10-13T00:03:23.724Z,6.45
2022-10-13T00:05:52.043Z,5.72
2022-10-13T00:08:22.248Z,6.45
2022-10-13T00:10:50.779Z,6.80
2022-10-13T00:13:18.079Z,6.00
2022-10-13T00:15:46.078Z,6.38
2022-10-13T00:18:13.060Z,5.88
2022-10-13T00:20:44.837Z,6.30
2022-10-13T00:23:12.026Z,6.22
2022-10-13T00:25:47.238Z,6.22
2022-10-13T00:28:15.195Z,6.22
2022-10-13T00:30:41.773Z,7.00
2022-10-13T00:33:09.682Z,6.28
2022-10-13T00:35:44.489Z,7.07
2022-10-13T00:38:11.815Z,5.75
2022-10-13T00:40:49.841Z,5.75
2022-10-13T00:43:21.897Z,5.82
2022-10-13T00:45:51.814Z,6.07
2022-10-13T00:48:27.223Z,6.05
2022-10-13T00:50:54.460Z,7.38
2022-10-13T00:53:27.375Z,6.93
2022-10-13T00:55:55.381Z,7.15
2022-10-13T00:58:25.589Z,7.97
2022-10-13T01:00:53.501Z,6.80
2022-10-13T01:03:21.225Z,6.80
2022-10-13T01:05:49.056Z,6.07
2022-10-13T01:08:16.612Z,6.53
2022-10-13T01:10:58.028Z,6.95
2022-10-13T01:13:30.589Z,7.10
2022-10-13T01:16:03.420Z,5.85
2022-10-13T01:18:51.715Z,7.88
2022-10-13T01:21:42.157Z,6.97
2022-10-13T01:24:19.639Z,9.43
2022-10-13T01:26:58.233Z,7.85
2022-10-13T01:29:32.675Z,6.97
2022-10-13T01:32:11.548Z,7.80
2022-10-13T01:34:53.015Z,6.75
2022-10-13T01:37:46.932Z,6.68
2022-10-13T01:40:23.507Z,6.75
2022-10-13T01:42:58.904Z,7.45
2022-10-13T01:45:32.083Z,6.80
2022-10-13T01:48:00.847Z,6.70
2022-10-13T01:50:28.329Z,6.55
2022-10-13T01:52:55.763Z,6.85
2022-10-13T01:55:22.344Z,7.93
2022-10-13T01:57:48.816Z,7.60
2022-10-13T02:00:21.240Z,6.97
2022-10-13T02:02:52.472Z,7.05
2022-10-13T02:05:41.828Z,7.85
2022-10-13T02:08:37.785Z,8.15
2022-10-13T02:11:16.665Z,8.07
2022-10-13T02:14:05.067Z,8.70
2022-10-13T02:16:36.755Z,8.23
2022-10-13T02:19:06.251Z,8.27
2022-10-13T02:21:33.512Z,7.38
2022-10-13T02:24:00.079Z,7.03
2022-10-13T02:26:27.352Z,7.43
2022-10-13T02:28:53.842Z,8.85
2022-10-13T02:31:20.497Z,7.80
2022-10-13T02:33:47.038Z,7.05
2022-10-13T02:36:13.478Z,7.35
2022-10-13T02:38:40.046Z,8.43
2022-10-13T02:41:06.594Z,8.95
2022-10-13T02:43:37.140Z,10.85
2022-10-13T02:46:04.485Z,9.70
2022-10-13T02:48:30.936Z,9.55
2022-10-13T02:50:57.437Z,8.90
2022-10-13T02:53:23.959Z,9.20
2022-10-13T02:55:50.444Z,8.40
2022-10-13T02:58:17.393Z,9.02
2022-10-13T03:00:43.900Z,8.70
2022-10-13T03:03:12.650Z,9.75
2022-10-13T03:05:39.276Z,9.70
2022-10-13T03:08:05.842Z,8.90
2022-10-13T03:10:32.604Z,7.15
2022-10-13T03:12:59.269Z,9.75
2022-10-13T03:15:25.937Z,9.82
2022-10-13T03:17:52.407Z,8.50
2022-10-13T03:20:19.224Z,7.05
2022-10-13T03:22:49.559Z,10.70
2022-10-13T03:25:16.628Z,8.05
2022-10-13T03:27:43.117Z,8.88
2022-10-13T03:30:10.621Z,10.00
2022-10-13T03:32:37.259Z,8.90
2022-10-13T03:35:04.229Z,9.38
2022-10-13T03:37:30.783Z,9.18
2022-10-13T03:39:57.298Z,10.73
2022-10-13T03:42:23.918Z,8.50
2022-10-13T03:44:55.205Z,11.05
2022-10-13T03:47:22.738Z,8.93
2022-10-13T03:49:49.213Z,9.40
2022-10-13T03:52:15.716Z,10.15
2022-10-13T03:54:42.304Z,9.20
2022-10-13T03:57:08.778Z,10.25
2022-10-13T03:59:36.917Z,7.90
2022-10-13T04:02:03.654Z,9.32
2022-10-13T04:04:30.243Z,9.40
2022-10-13T04:06:56.748Z,9.50
2022-10-13T04:09:23.258Z,9.20
2022-10-13T04:11:51.608Z,11.18
2022-10-13T04:14:18.644Z,10.15
2022-10-13T04:16:45.392Z,8.73
2022-10-13T04:19:13.635Z,9.27
2022-10-13T04:21:41.584Z,9.68
2022-10-13T04:24:11.022Z,9.65
2022-10-13T04:26:37.592Z,9.40
2022-10-13T04:29:06.002Z,8.98
2022-10-13T04:31:32.629Z,10.23
2022-10-13T04:33:59.693Z,9.18
2022-10-13T04:36:27.041Z,9.70
2022-10-13T04:38:54.501Z,10.15
2022-10-13T04:41:21.578Z,8.68
2022-10-13T04:43:49.780Z,10.25
2022-10-13T04:46:19.499Z,9.48
2022-10-13T04:48:46.774Z,10.07
2022-10-13T04:51:15.701Z,9.93
2022-10-13T04:53:42.675Z,8.90
2022-10-13T04:56:17.463Z,8.93
2022-10-13T04:58:45.606Z,10.10
2022-10-13T05:01:22.430Z,9.02
2022-10-13T05:03:58.068Z,9.68
2022-10-13T05:06:31.069Z,9.25
2022-10-13T05:08:57.972Z,8.70
2022-10-13T05:11:26.648Z,9.65
2022-10-13T05:13:53.514Z,9.05
2022-10-13T05:16:22.204Z,9.63
2022-10-13T05:18:50.611Z,9.23
2022-10-13T05:21:19.804Z,9.13
2022-10-13T05:23:47.332Z,8.85
2022-10-13T05:26:16.925Z,9.43
2022-10-13T05:28:44.217Z,9.25
2022-10-13T05:31:19.616Z,9.23
2022-10-13T05:33:47.117Z,11.13
2022-10-13T05:36:19.611Z,9.98
2022-10-13T05:38:50.794Z,9.18
2022-10-13T05:41:17.359Z,10.10
2022-10-13T05:43:43.844Z,9.65
2022-10-13T05:46:11.295Z,9.40
2022-10-13T05:48:38.415Z,10.07
2022-10-13T05:51:15.547Z,8.57
2022-10-13T05:53:51.909Z,10.65
2022-10-13T05:56:27.231Z,10.40
2022-10-13T05:59:01.554Z,10.40
2022-10-13T06:01:31.427Z,10.55
2022-10-13T06:04:03.361Z,9.57
2022-10-13T06:06:31.591Z,9.77
2022-10-13T06:08:59.852Z,9.13
2022-10-13T06:11:27.249Z,10.48
2022-10-13T06:13:53.714Z,10.20
2022-10-13T06:16:20.220Z,9.52
2022-10-13T06:18:46.719Z,10.05
2022-10-13T06:21:13.542Z,11.10
2022-10-13T06:23:40.027Z,10.70
2022-10-13T06:26:09.023Z,9.60
2022-10-13T06:28:35.940Z,10.35
2022-10-13T06:31:06.897Z,10.57
2022-10-13T06:33:34.039Z,11.05
2022-10-13T06:36:05.061Z,10.27
2022-10-13T06:38:32.753Z,9.90
2022-10-13T06:41:03.547Z,9.75
2022-10-13T06:43:38.646Z,10.95
2022-10-13T06:46:06.739Z,10.55
2022-10-13T06:48:33.278Z,9.70
2022-10-13T06:51:07.660Z,9.60
2022-10-13T06:53:34.530Z,9.77
2022-10-13T06:56:03.056Z,8.80
2022-10-13T06:58:29.646Z,10.70
2022-10-13T07:00:56.755Z,9.90
2022-10-13T07:03:25.067Z,9.88
2022-10-13T07:05:51.925Z,11.68
2022-10-13T07:08:19.150Z,10.05
2022-10-13T07:10:45.759Z,8.82
2022-10-13T07:13:12.470Z,9.63
2022-10-13T07:15:39.973Z,9.13
2022-10-13T07:18:07.064Z,10.50
2022-10-13T07:20:34.319Z,9.20
2022-10-13T07:23:01.063Z,10.00
2022-10-13T07:25:28.658Z,9.35
2022-10-13T07:27:55.168Z,9.07
2022-10-13T07:30:21.875Z,9.85
2022-10-13T07:32:48.652Z,8.88
2022-10-13T07:35:15.334Z,9.40
2022-10-13T07:37:41.848Z,9.70
2022-10-13T07:40:08.989Z,9.25
2022-10-13T07:42:35.489Z,10.45
2022-10-13T07:45:01.970Z,11.00
2022-10-13T07:47:28.901Z,10.35
2022-10-13T07:49:55.855Z,9.85
2022-10-13T07:52:23.011Z,11.13
2022-10-13T07:54:50.802Z,11.13
2022-10-13T07:57:17.655Z,9.15
2022-10-13T07:59:44.177Z,11.18
2022-10-13T08:02:11.224Z,9.88
2022-10-13T08:04:37.851Z,10.38
2022-10-13T08:07:05.805Z,10.63
2022-10-13T08:09:33.059Z,11.27
2022-10-13T08:12:01.940Z,11.82
2022-10-13T08:14:29.800Z,12.35
2022-10-13T08:16:57.797Z,13.80
2022-10-13T08:19:26.397Z,12.77
2022-10-13T08:21:58.797Z,13.38
2022-10-13T08:24:27.395Z,12.65
2022-10-13T08:26:54.468Z,13.82
2022-10-13T08:29:22.957Z,13.90
2022-10-13T08:31:50.411Z,13.18
2022-10-13T08:34:16.906Z,13.45
2022-10-13T08:36:43.892Z,13.02
2022-10-13T08:39:10.695Z,13.90
2022-10-13T08:41:40.389Z,14.80
2022-10-13T08:47:27.919Z,16.35
2022-10-13T08:50:02.477Z,14.48
2022-10-13T08:53:01.408Z,14.32
2022-10-13T08:55:44.310Z,14.73
2022-10-13T08:58:29.761Z,15.10
2022-10-13T09:01:16.999Z,14.18
2022-10-13T09:03:55.893Z,14.93
2022-10-13T09:06:28.581Z,14.52
2022-10-13T09:09:07.026Z,13.50
2022-10-13T09:11:37.507Z,12.85
2022-10-13T09:14:09.010Z,13.40
2022-10-13T09:16:40.790Z,13.13
2022-10-13T09:19:17.805Z,12.55
2022-10-13T09:21:44.344Z,13.02
2022-10-13T09:24:17.123Z,12.75
2022-10-13T09:26:46.041Z,12.43
2022-10-13T09:29:26.475Z,12.05
2022-10-13T09:32:12.945Z,13.80
2022-10-13T09:34:40.096Z,11.32
2022-10-13T09:37:16.395Z,10.35
2022-10-13T09:39:43.116Z,10.82
2022-10-13T09:42:25.575Z,10.68
2022-10-13T09:45:14.594Z,10.95
2022-10-13T09:47:42.591Z,10.98
2022-10-13T09:50:19.776Z,10.85
2022-10-13T09:52:47.654Z,9.77
2022-10-13T09:55:32.616Z,11.13
2022-10-13T10:00:33.477Z,9.10
2022-10-13T10:03:25.044Z,10.40
2022-10-13T10:05:54.643Z,9.98
2022-10-13T10:09:02.683Z,10.52
2022-10-13T10:11:35.113Z,12.00
2022-10-13T10:14:38.212Z,11.90
2022-10-13T10:17:33.730Z,11.75
2022-10-13T10:20:06.339Z,12.75
2022-10-13T10:22:54.164Z,12.77
2022-10-13T10:25:40.123Z,12.68
2022-10-13T10:28:27.975Z,12.68
2022-10-13T10:31:01.958Z,13.27
2022-10-13T10:34:07.766Z,14.18
2022-10-13T10:36:46.797Z,14.20
2022-10-13T10:39:19.632Z,15.13
2022-10-13T10:41:55.412Z,15.70
2022-10-13T10:44:26.500Z,16.23
2022-10-13T10:46:59.353Z,16.40
2022-10-13T10:49:31.636Z,17.23
2022-10-13T10:52:01.568Z,18.17
2022-10-13T10:54:49.275Z,18.02
2022-10-13T10:57:22.862Z,18.83
2022-10-13T11:00:17.689Z,19.00
2022-10-13T11:02:53.081Z,20.48
2022-10-13T11:05:20.236Z,18.90
2022-10-13T11:07:46.981Z,20.17
2022-10-13T11:10:13.421Z,19.02
2022-10-13T11:13:04.982Z,18.65
2022-10-13T11:15:44.184Z,18.30
2022-10-13T11:18:48.148Z,17.17
2022-10-13T11:21:14.644Z,17.50
2022-10-13T11:23:47.686Z,16.58
2022-10-13T11:26:31.208Z,16.92
2022-10-13T11:28:59.116Z,16.40
2022-10-13T11:31:25.571Z,16.83
2022-10-13T11:34:01.323Z,17.73
2022-10-13T11:36:44.391Z,17.60
2022-10-13T11:39:27.400Z,18.35
2022-10-13T11:42:12.892Z,18.02
2022-10-13T11:44:48.563Z,17.90
2022-10-13T11:48:02.557Z,17.30
2022-10-13T11:50:42.031Z,16.98
2022-10-13T11:53:18.802Z,17.60
2022-10-13T11:55:54.055Z,17.30
2022-10-13T11:58:23.523Z,18.08
2022-10-13T12:01:07.355Z,16.50
2022-10-13T12:03:36.422Z,6.00
2022-10-13T12:06:06.136Z,7.65
2022-10-13T12:08:35.186Z,4.40
2022-10-13T12:11:05.860Z,3.15
2022-10-13T12:13:34.066Z,3.80
2022-10-13T12:16:03.510Z,3.35
2022-10-13T12:18:36.079Z,2.30
2022-10-13T12:21:12.052Z,2.70
2022-10-13T12:23:39.099Z,2.58
2022-10-13T12:26:06.069Z,2.75
2022-10-13T12:28:55.500Z,2.60
2022-10-13T12:31:25.014Z,3.63
2022-10-13T12:34:02.511Z,3.15
2022-10-13T12:36:31.665Z,2.95
2022-10-13T12:39:02.461Z,2.58
2022-10-13T12:41:32.513Z,3.20
2022-10-13T12:44:02.425Z,2.97
2022-10-13T12:46:46.211Z,3.20
2022-10-13T12:49:17.722Z,3.17
2022-10-13T12:51:48.682Z,3.20
2022-10-13T12:54:27.261Z,3.72
2022-10-13T12:56:57.437Z,3.00
2022-10-13T12:59:26.766Z,2.17
2022-10-13T13:02:02.569Z,2.83
2022-10-13T13:04:31.862Z,3.35
2022-10-13T13:07:04.880Z,2.97
2022-10-13T13:09:34.249Z,2.30
2022-10-13T13:12:10.893Z,2.65
2022-10-13T13:14:48.469Z,2.63
2022-10-13T13:20:31.741Z,2.50
2022-10-13T13:22:58.861Z,1.92
2022-10-13T13:25:26.022Z,1.50
2022-10-13T13:27:53.120Z,1.75
2022-10-13T13:30:22.487Z,1.20
2022-10-13T13:32:49.647Z,1.90
2022-10-13T13:35:16.504Z,1.55
2022-10-13T13:37:48.888Z,1.70
2022-10-13T13:40:28.060Z,2.03
2022-10-13T13:42:54.967Z,1.77
2022-10-13T13:45:24.881Z,1.88
2022-10-13T13:47:51.867Z,1.77
2022-10-13T13:50:24.153Z,1.60
2022-10-13T13:52:50.652Z,1.55
2022-10-13T13:55:17.548Z,1.40
2022-10-13T13:57:44.774Z,1.55
2022-10-13T14:00:13.283Z,1.08
2022-10-13T14:02:39.886Z,1.67
2022-10-13T14:05:07.576Z,1.20
2022-10-13T14:07:34.156Z,1.23
2022-10-13T14:10:02.144Z,1.20
2022-10-13T14:12:30.673Z,1.42
2022-10-13T14:14:58.453Z,1.27
2022-10-13T14:17:28.689Z,0.90
2022-10-13T14:19:55.498Z,1.42
2022-10-13T14:22:23.006Z,1.40
2022-10-13T14:24:50.111Z,1.50
2022-10-13T14:27:16.684Z,1.83
2022-10-13T14:29:43.215Z,1.70
2022-10-13T14:32:09.715Z,1.50
2022-10-13T14:34:36.251Z,1.67
2022-10-13T14:37:02.721Z,1.40
2022-10-13T14:39:29.221Z,1.75
2022-10-13T14:41:55.793Z,1.65
2022-10-13T14:44:22.235Z,1.98
2022-10-13T14:46:48.699Z,1.75
2022-10-13T14:49:15.166Z,1.70
2022-10-13T14:51:41.636Z,1.20
2022-10-13T14:54:08.285Z,2.50
2022-10-13T14:56:35.896Z,1.67
2022-10-13T14:59:05.152Z,1.73
2022-10-13T15:01:33.408Z,2.20
2022-10-13T15:04:01.106Z,1.13
2022-10-13T15:06:27.583Z,1.58
2022-10-13T15:08:54.913Z,1.55
2022-10-13T15:11:22.072Z,1.30
2022-10-13T15:13:48.847Z,1.88
2022-10-13T15:16:21.609Z,1.38
2022-10-13T15:18:48.748Z,1.50
2022-10-13T15:21:16.302Z,1.45
2022-10-13T15:23:43.743Z,1.48
2022-10-13T15:26:11.814Z,1.52
2022-10-13T15:28:47.875Z,1.13
2022-10-13T15:31:15.967Z,1.02
2022-10-13T15:33:45.215Z,0.90
2022-10-13T15:36:12.283Z,1.27
2022-10-13T15:38:38.825Z,1.10
2022-10-13T15:41:06.868Z,1.05
2022-10-13T15:43:34.452Z,1.52
2022-10-13T15:46:03.352Z,1.27
2022-10-13T15:48:30.005Z,1.27
2022-10-13T15:50:56.555Z,1.30
2022-10-13T15:53:23.990Z,2.03
2022-10-13T15:55:50.936Z,0.95
2022-10-13T15:58:17.948Z,1.05
2022-10-13T16:00:44.945Z,1.50
2022-10-13T16:03:15.291Z,1.33
2022-10-13T16:05:46.168Z,1.20
2022-10-13T16:08:13.615Z,1.58
2022-10-13T16:10:41.418Z,2.22
2022-10-13T16:13:08.968Z,1.73
2022-10-13T16:15:35.901Z,1.80
2022-10-13T16:18:02.838Z,1.90
2022-10-13T16:20:34.408Z,1.40
2022-10-13T16:23:01.399Z,2.70
2022-10-13T16:25:28.102Z,1.98
2022-10-13T16:27:54.612Z,2.78
2022-10-13T16:30:21.074Z,2.17
2022-10-13T16:32:48.256Z,1.70
2022-10-13T16:35:14.809Z,2.60
2022-10-13T16:37:41.273Z,2.55
2022-10-13T16:40:08.457Z,2.90
2022-10-13T16:42:35.028Z,2.38
2022-10-13T16:45:01.529Z,2.63
2022-10-13T16:47:28.094Z,3.05
2022-10-13T16:49:54.619Z,2.90
2022-10-13T16:52:21.220Z,3.10
2022-10-13T16:54:47.997Z,2.90
2022-10-13T16:57:14.659Z,4.20
2022-10-13T16:59:44.042Z,3.35
2022-10-13T17:02:14.533Z,3.10
2022-10-13T17:04:42.038Z,3.75
2022-10-13T17:07:08.593Z,4.18
2022-10-13T17:09:35.763Z,3.25
2022-10-13T17:12:03.830Z,4.80
2022-10-13T17:14:30.527Z,4.63
2022-10-13T17:16:58.147Z,4.10
2022-10-13T17:19:25.126Z,12.70
2022-10-13T17:21:51.655Z,18.17
2022-10-13T17:24:18.352Z,22.55
2022-10-13T17:26:44.803Z,21.23
2022-10-13T17:29:11.309Z,17.85
2022-10-13T17:31:37.871Z,13.82
2022-10-13T17:34:06.323Z,9.10
2022-10-13T17:36:34.116Z,7.10
2022-10-13T17:39:09.650Z,6.63
2022-10-13T17:41:37.067Z,6.03
2022-10-13T17:44:04.238Z,6.05
2022-10-13T17:46:37.563Z,6.72
2022-10-13T17:49:06.512Z,5.65
2022-10-13T17:51:33.278Z,6.55
2022-10-13T17:54:00.071Z,6.28
2022-10-13T17:56:26.823Z,6.53
2022-10-13T17:58:53.899Z,6.50
2022-10-13T18:01:23.960Z,7.40
2022-10-13T18:03:55.416Z,6.82
2022-10-13T18:06:22.997Z,6.82
2022-10-13T18:08:52.822Z,6.18
2022-10-13T18:11:21.282Z,5.78
2022-10-13T18:13:48.296Z,5.82
2022-10-13T18:16:18.685Z,5.40
2022-10-13T18:18:45.995Z,6.75
2022-10-13T18:21:15.534Z,6.80
2022-10-13T18:23:43.386Z,5.97
2022-10-13T18:26:12.768Z,6.25
2022-10-13T18:28:43.282Z,5.57
2022-10-13T18:31:32.137Z,4.97
2022-10-13T18:34:00.739Z,5.85
2022-10-13T18:36:30.048Z,5.15
2022-10-13T18:39:04.226Z,4.35
2022-10-13T18:41:31.896Z,5.13
2022-10-13T18:43:58.439Z,4.53
2022-10-13T18:46:25.148Z,4.32
2022-10-13T18:48:51.800Z,4.65
2022-10-13T18:51:19.727Z,3.92
2022-10-13T18:53:48.126Z,3.83
2022-10-13T18:56:18.000Z,3.35
2022-10-13T18:58:44.548Z,3.05
2022-10-13T19:01:17.930Z,4.03
2022-10-13T19:03:45.183Z,5.40
2022-10-13T19:06:14.820Z,4.93
2022-10-13T19:08:42.521Z,5.05
2022-10-13T19:11:15.377Z,4.80
2022-10-13T19:13:42.422Z,5.47
2022-10-13T19:16:10.016Z,4.20
2022-10-13T19:18:36.895Z,4.50
2022-10-13T19:21:04.272Z,3.97
2022-10-13T19:23:31.096Z,3.53
2022-10-13T19:25:58.639Z,3.92
2022-10-13T19:28:25.633Z,4.03
2022-10-13T19:30:52.306Z,4.15
2022-10-13T19:38:41.350Z,4.10
2022-10-13T19:41:07.855Z,6.53
2022-10-13T19:43:34.537Z,10.52
2022-10-13T19:46:01.088Z,11.82
2022-10-13T19:48:28.150Z,13.13
2022-10-13T19:50:54.666Z,16.30
2022-10-13T19:53:21.359Z,15.65
2022-10-13T19:55:48.435Z,14.10
2022-10-13T19:58:16.767Z,11.82
2022-10-13T20:00:45.073Z,11.20
2022-10-13T20:03:13.043Z,9.15
2022-10-13T20:05:41.012Z,7.13
2022-10-13T20:08:09.469Z,5.63
2022-10-13T20:10:42.966Z,5.47
2022-10-13T20:13:10.813Z,5.22
2022-10-13T20:15:42.140Z,6.72
2022-10-13T20:18:12.702Z,7.30
2022-10-13T20:20:41.519Z,7.45
2022-10-13T20:23:08.894Z,7.18
2022-10-13T20:25:37.806Z,6.22
2022-10-13T20:28:05.163Z,5.97
2022-10-13T20:30:32.627Z,6.70
2022-10-13T20:32:59.267Z,7.32
2022-10-13T20:35:25.956Z,6.15
2022-10-13T20:37:52.468Z,6.72
2022-10-13T20:40:19.467Z,6.53
2022-10-13T20:42:50.698Z,8.25
2022-10-13T20:45:17.749Z,8.82
2022-10-13T20:47:44.462Z,7.55
2022-10-13T20:50:11.196Z,8.05
2022-10-13T20:52:38.470Z,8.50
2022-10-13T20:55:05.193Z,7.63
2022-10-13T20:57:31.750Z,9.05
2022-10-13T20:59:58.351Z,9.00
2022-10-13T21:02:24.791Z,9.20
2022-10-13T21:04:51.316Z,10.13
2022-10-13T21:07:17.946Z,8.57
2022-10-13T21:09:44.598Z,10.05
2022-10-13T21:12:11.056Z,8.93
2022-10-13T21:14:38.412Z,8.80
2022-10-13T21:17:04.853Z,10.90
2022-10-13T21:19:31.418Z,11.77
2022-10-13T21:21:57.898Z,11.07
2022-10-13T21:24:24.385Z,12.30
2022-10-13T21:26:50.864Z,12.07
2022-10-13T21:29:17.339Z,11.68
2022-10-13T21:31:43.858Z,11.52
2022-10-13T21:34:12.288Z,15.45
2022-10-13T21:36:42.421Z,12.65
2022-10-13T21:39:09.865Z,12.45
2022-10-13T21:41:36.832Z,12.68
2022-10-13T21:44:03.929Z,12.10
2022-10-13T21:46:32.366Z,12.20
2022-10-13T21:49:00.669Z,11.43
2022-10-13T21:51:34.246Z,12.10
2022-10-13T21:54:04.970Z,11.32
2022-10-13T21:56:32.793Z,11.25
2022-10-13T21:58:59.923Z,12.32
2022-10-13T22:01:26.723Z,11.90
2022-10-13T22:03:56.303Z,10.63
2022-10-13T22:06:24.067Z,10.73
2022-10-13T22:08:52.251Z,13.73
2022-10-13T22:11:19.349Z,11.55
2022-10-13T22:13:46.558Z,11.52
2022-10-13T22:16:19.062Z,16.45
2022-10-13T22:18:46.301Z,11.98
2022-10-13T22:21:17.074Z,11.27
2022-10-13T22:23:44.288Z,10.18
2022-10-13T22:26:11.564Z,12.48
2022-10-13T22:28:38.838Z,17.38
2022-10-13T22:31:06.889Z,13.23
2022-10-13T22:33:34.561Z,11.88
2022-10-13T22:36:01.221Z,13.20
2022-10-13T22:38:27.741Z,13.13
2022-10-13T22:40:54.209Z,16.02
2022-10-13T22:43:20.778Z,12.45
2022-10-13T22:45:52.527Z,14.40
2022-10-13T22:48:19.064Z,14.20
2022-10-13T22:50:45.608Z,19.08
2022-10-13T22:53:12.228Z,14.32
2022-10-13T22:55:40.541Z,18.63
2022-10-13T22:58:07.783Z,16.55
2022-10-13T23:00:36.023Z,15.10
2022-10-13T23:03:03.132Z,13.60
2022-10-13T23:05:30.263Z,16.00
2022-10-13T23:07:57.100Z,18.48
2022-10-13T23:10:24.358Z,15.32
2022-10-13T23:12:50.816Z,15.50
2022-10-13T23:15:17.420Z,16.90
2022-10-13T23:17:44.417Z,17.88
2022-10-13T23:20:11.097Z,15.48
2022-10-13T23:22:37.622Z,13.57
2022-10-13T23:25:04.300Z,14.70
2022-10-13T23:27:30.741Z,13.95
2022-10-13T23:29:57.249Z,16.27
2022-10-13T23:32:23.799Z,13.82
2022-10-13T23:34:50.371Z,16.40
2022-10-13T23:37:16.859Z,12.27
2022-10-13T23:39:43.421Z,18.38
2022-10-13T23:42:10.224Z,13.52
2022-10-13T23:44:36.706Z,14.85
2022-10-13T23:47:03.202Z,14.73
2022-10-13T23:49:29.700Z,11.38
2022-10-13T23:51:56.174Z,14.20
2022-10-13T23:54:22.623Z,11.70
2022-10-13T23:56:49.074Z,11.13
2022-10-13T23:59:15.595Z,11.57
